createdAt,value
2022-12-04T00:02:19.272Z,1.00
2022-12-04T00:04:46.546Z,0.90
2022-12-04T00:07:13.791Z,0.90
2022-12-04T00:09:41.227Z,0.90
2022-12-04T00:12:08.579Z,0.90
2022-12-04T00:14:54.572Z,0.90
2022-12-04T00:17:23.288Z,0.90
2022-12-04T00:19:50.513Z,0.90
2022-12-04T00:22:17.822Z,0.90
2022-12-04T00:24:44.985Z,0.90
2022-12-04T00:27:12.126Z,0.90
2022-12-04T00:29:39.371Z,0.80
2022-12-04T00:32:06.609Z,0.80
2022-12-04T00:34:34.033Z,0.80
2022-12-04T00:37:01.260Z,0.80
2022-12-04T00:39:28.392Z,0.80
2022-12-04T00:41:55.567Z,0.70
2022-12-04T00:44:22.790Z,0.70
2022-12-04T00:46:49.952Z,0.70
2022-12-04T00:49:17.196Z,0.80
2022-12-04T00:51:44.440Z,0.70
2022-12-04T00:54:11.645Z,0.60
2022-12-04T00:56:39.344Z,0.60
2022-12-04T00:59:06.487Z,0.60
2022-12-04T01:01:33.713Z,0.50
2022-12-04T01:04:01.075Z,0.50
2022-12-04T01:06:31.492Z,0.50
2022-12-04T01:09:00.909Z,0.50
2022-12-04T01:11:29.589Z,0.50
2022-12-04T01:13:57.623Z,0.50
2022-12-04T01:16:46.591Z,0.50
2022-12-04T01:19:13.919Z,0.50
2022-12-04T01:21:41.520Z,0.50
2022-12-04T01:24:09.102Z,0.60
2022-12-04T01:26:36.253Z,0.60
2022-12-04T01:29:03.877Z,0.70
2022-12-04T01:31:31.609Z,0.70
2022-12-04T01:33:59.174Z,0.70
2022-12-04T01:36:28.238Z,0.70
2022-12-04T01:38:56.086Z,0.70
2022-12-04T01:41:26.468Z,0.70
2022-12-04T01:44:14.499Z,0.80
2022-12-04T01:46:42.975Z,0.70
2022-12-04T01:49:15.539Z,0.80
2022-12-04T01:51:48.365Z,0.80
2022-12-04T01:54:22.511Z,0.90
2022-12-04T01:56:57.335Z,0.90
2022-12-04T01:59:28.264Z,1.00
2022-12-04T02:02:11.883Z,1.10
2022-12-04T02:04:41.138Z,1.10
2022-12-04T02:07:09.187Z,1.10
2022-12-04T02:09:39.453Z,1.10
2022-12-04T02:12:12.377Z,1.10
2022-12-04T02:15:13.132Z,1.20
2022-12-04T02:17:56.191Z,1.20
2022-12-04T02:20:52.849Z,1.20
2022-12-04T02:23:23.159Z,1.20
2022-12-04T02:26:22.830Z,1.20
2022-12-04T02:29:12.598Z,1.20
2022-12-04T02:31:52.289Z,1.10
2022-12-04T02:34:22.559Z,1.10
2022-12-04T02:37:17.022Z,1.10
2022-12-04T02:40:14.723Z,1.10
2022-12-04T02:43:07.791Z,1.00
2022-12-04T02:45:51.641Z,1.00
2022-12-04T02:48:20.840Z,0.90
2022-12-04T02:50:53.331Z,0.80
2022-12-04T02:53:28.603Z,0.90
2022-12-04T02:56:00.410Z,0.80
2022-12-04T02:58:36.562Z,0.70
2022-12-04T03:01:19.560Z,0.70
2022-12-04T03:04:02.995Z,0.70
2022-12-04T03:06:34.054Z,0.50
2022-12-04T03:09:08.548Z,0.50
2022-12-04T03:11:41.137Z,0.50
2022-12-04T03:14:22.808Z,0.40
2022-12-04T03:16:54.025Z,0.30
2022-12-04T03:19:28.110Z,0.30
2022-12-04T03:21:59.910Z,0.30
2022-12-04T03:24:36.448Z,0.30
2022-12-04T03:27:13.999Z,0.30
2022-12-04T03:29:57.655Z,0.30
2022-12-04T03:32:34.803Z,0.20
2022-12-04T03:35:14.111Z,0.20
2022-12-04T03:38:03.339Z,0.20
2022-12-04T03:40:49.250Z,0.20
2022-12-04T03:43:37.936Z,0.20
2022-12-04T03:46:05.070Z,0.20
2022-12-04T03:48:42.625Z,0.20
2022-12-04T03:51:21.646Z,0.30
2022-12-04T03:53:56.674Z,0.40
2022-12-04T03:56:29.405Z,0.40
2022-12-04T03:59:03.434Z,0.50
2022-12-04T04:01:35.527Z,0.50
2022-12-04T04:04:07.906Z,0.50
2022-12-04T04:06:40.973Z,0.60
2022-12-04T04:09:17.990Z,0.80
2022-12-04T04:12:14.064Z,0.70
2022-12-04T04:15:27.416Z,0.70
2022-12-04T04:18:16.135Z,0.70
2022-12-04T04:21:07.838Z,0.70
2022-12-04T04:23:59.694Z,0.70
2022-12-04T04:26:29.811Z,0.70
2022-12-04T04:28:57.099Z,0.80
2022-12-04T04:31:36.204Z,0.80
2022-12-04T04:34:29.419Z,0.80
2022-12-04T04:37:15.719Z,0.80
2022-12-04T04:39:55.275Z,0.80
2022-12-04T04:42:34.522Z,0.80
2022-12-04T04:45:32.426Z,0.80
2022-12-04T04:48:29.512Z,0.80
2022-12-04T04:50:57.951Z,0.80
2022-12-04T04:53:30.179Z,0.80
2022-12-04T04:55:58.712Z,0.90
2022-12-04T04:58:26.397Z,0.80
2022-12-04T05:00:58.331Z,0.80
2022-12-04T05:03:26.513Z,0.80
2022-12-04T05:05:54.458Z,0.80
2022-12-04T05:08:22.080Z,0.80
2022-12-04T05:10:49.421Z,0.80
2022-12-04T05:13:20.811Z,0.80
2022-12-04T05:15:58.358Z,0.80
2022-12-04T05:18:26.204Z,0.80
2022-12-04T05:20:53.981Z,0.80
2022-12-04T05:23:21.291Z,0.90
2022-12-04T05:25:48.626Z,0.80
2022-12-04T05:28:16.725Z,0.80
2022-12-04T05:30:58.095Z,0.80
2022-12-04T05:33:25.798Z,0.70
2022-12-04T05:36:04.099Z,0.80
2022-12-04T05:38:31.476Z,0.80
2022-12-04T05:40:59.941Z,0.80
2022-12-04T05:43:27.630Z,0.80
2022-12-04T05:45:55.180Z,0.80
2022-12-04T05:48:22.381Z,0.80
2022-12-04T05:50:49.594Z,0.80
2022-12-04T05:53:17.102Z,0.80
2022-12-04T05:55:44.578Z,0.80
2022-12-04T05:58:11.883Z,0.80
2022-12-04T06:00:39.267Z,0.90
2022-12-04T06:03:06.480Z,0.80
2022-12-04T06:05:33.777Z,0.80
2022-12-04T06:08:01.090Z,0.90
2022-12-04T06:10:29.541Z,0.80
2022-12-04T06:12:57.825Z,0.80
2022-12-04T06:15:25.588Z,0.80
2022-12-04T06:17:52.944Z,0.80
2022-12-04T06:20:20.208Z,0.80
2022-12-04T06:22:47.732Z,0.80
2022-12-04T06:25:14.985Z,0.80
2022-12-04T06:27:43.894Z,0.90
2022-12-04T06:30:11.647Z,0.90
2022-12-04T06:32:38.945Z,0.90
2022-12-04T06:35:07.121Z,0.90
2022-12-04T06:37:34.377Z,0.80
2022-12-04T06:40:01.603Z,1.00
2022-12-04T06:42:28.929Z,0.80
2022-12-04T06:44:56.014Z,0.80
2022-12-04T06:47:23.264Z,0.80
2022-12-04T06:49:51.460Z,0.80
2022-12-04T06:52:18.716Z,0.90
2022-12-04T06:54:45.940Z,0.80
2022-12-04T06:57:13.066Z,0.80
2022-12-04T06:59:40.389Z,0.90
2022-12-04T07:02:09.059Z,0.80
2022-12-04T07:04:36.376Z,0.90
2022-12-04T07:07:03.740Z,0.90
2022-12-04T07:09:30.855Z,0.90
2022-12-04T07:11:58.024Z,0.80
2022-12-04T07:14:25.198Z,0.90
2022-12-04T07:16:52.592Z,0.90
2022-12-04T07:19:19.731Z,0.90
2022-12-04T07:21:46.949Z,0.90
2022-12-04T07:24:16.279Z,0.90
2022-12-04T07:26:43.638Z,0.90
2022-12-04T07:29:12.311Z,1.10
2022-12-04T07:31:39.515Z,0.90
2022-12-04T07:34:06.752Z,1.00
2022-12-04T07:36:33.889Z,1.00
2022-12-04T07:39:01.139Z,1.00
2022-12-04T07:41:28.342Z,1.00
2022-12-04T07:43:55.520Z,1.00
2022-12-04T07:46:25.764Z,1.10
2022-12-04T07:48:55.099Z,1.10
2022-12-04T07:51:24.522Z,1.10
2022-12-04T07:53:53.349Z,1.10
2022-12-04T07:56:21.880Z,1.10
2022-12-04T07:58:49.125Z,1.20
2022-12-04T08:01:19.576Z,1.20
2022-12-04T08:03:49.194Z,1.20
2022-12-04T08:06:18.917Z,1.20
2022-12-04T08:08:47.143Z,1.20
2022-12-04T08:11:17.879Z,1.30
2022-12-04T08:13:45.446Z,1.30
2022-12-04T08:16:13.338Z,1.30
2022-12-04T08:18:41.696Z,1.30
2022-12-04T08:21:12.062Z,1.40
2022-12-04T08:23:40.597Z,1.40
2022-12-04T08:26:09.133Z,1.40
2022-12-04T08:28:36.824Z,1.40
2022-12-04T08:31:14.924Z,1.50
2022-12-04T08:33:43.662Z,1.50
2022-12-04T08:36:14.245Z,1.50
2022-12-04T08:38:41.871Z,1.50
2022-12-04T08:41:12.422Z,1.50
2022-12-04T08:43:39.902Z,1.60
2022-12-04T08:46:10.563Z,1.60
2022-12-04T08:48:38.097Z,1.60
2022-12-04T08:51:08.191Z,1.80
2022-12-04T08:53:38.646Z,1.70
2022-12-04T08:56:06.250Z,1.70
2022-12-04T08:58:33.465Z,1.80
2022-12-04T09:01:09.807Z,1.70
2022-12-04T09:03:37.659Z,1.70
2022-12-04T09:06:06.784Z,1.70
2022-12-04T09:08:34.464Z,1.70
2022-12-04T09:11:12.114Z,1.90
2022-12-04T09:13:39.513Z,1.80
2022-12-04T09:16:09.567Z,1.80
2022-12-04T09:18:37.887Z,1.80
2022-12-04T09:21:08.058Z,1.90
2022-12-04T09:23:36.474Z,1.80
2022-12-04T09:26:05.257Z,1.80
2022-12-04T09:28:32.491Z,1.90
2022-12-04T09:31:05.436Z,1.90
2022-12-04T09:33:33.215Z,1.90
2022-12-04T09:36:04.160Z,1.90
2022-12-04T09:38:31.841Z,1.90
2022-12-04T09:41:15.260Z,1.90
2022-12-04T09:43:47.861Z,1.90
2022-12-04T09:46:32.799Z,1.90
2022-12-04T09:49:04.969Z,1.80
2022-12-04T09:51:35.356Z,2.00
2022-12-04T09:54:17.106Z,2.00
2022-12-04T09:56:53.692Z,2.00
2022-12-04T09:59:27.884Z,2.00
2022-12-04T10:02:11.473Z,2.10
2022-12-04T10:04:38.917Z,2.20
2022-12-04T10:07:25.179Z,2.10
2022-12-04T10:09:59.209Z,2.10
2022-12-04T10:12:49.987Z,2.20
2022-12-04T10:15:29.733Z,2.20
2022-12-04T10:18:23.272Z,2.20
2022-12-04T10:21:09.837Z,2.30
2022-12-04T10:24:17.189Z,2.30
2022-12-04T10:26:46.869Z,2.30
2022-12-04T10:29:24.303Z,2.30
2022-12-04T10:31:54.366Z,2.40
2022-12-04T10:34:31.625Z,2.50
2022-12-04T10:37:12.366Z,2.50
2022-12-04T10:39:51.192Z,2.50
2022-12-04T10:42:53.724Z,2.60
2022-12-04T10:45:22.997Z,2.60
2022-12-04T10:47:52.747Z,2.60
2022-12-04T10:50:23.167Z,2.70
2022-12-04T10:52:50.834Z,2.70
2022-12-04T10:55:38.372Z,2.70
2022-12-04T10:58:16.458Z,2.80
2022-12-04T11:00:48.220Z,2.80
2022-12-04T11:03:28.091Z,2.80
2022-12-04T11:06:06.651Z,2.70
2022-12-04T11:08:41.284Z,2.80
2022-12-04T11:11:14.413Z,2.80
2022-12-04T11:13:42.343Z,2.80
2022-12-04T11:16:33.052Z,2.80
2022-12-04T11:19:00.304Z,2.90
2022-12-04T11:21:30.959Z,2.90
2022-12-04T11:23:58.828Z,2.90
2022-12-04T11:26:36.822Z,3.00
2022-12-04T11:29:06.061Z,2.90
2022-12-04T11:31:33.791Z,2.90
2022-12-04T11:34:06.813Z,3.00
2022-12-04T11:36:40.637Z,3.00
2022-12-04T11:39:28.761Z,2.90
2022-12-04T11:42:22.890Z,2.90
2022-12-04T11:45:02.569Z,3.00
2022-12-04T11:47:32.478Z,2.90
2022-12-04T11:50:37.992Z,2.90
2022-12-04T11:53:11.155Z,2.90
2022-12-04T11:55:51.174Z,2.90
2022-12-04T11:58:51.109Z,2.90
2022-12-04T12:01:43.770Z,3.00
2022-12-04T12:04:25.082Z,2.90
2022-12-04T12:07:09.490Z,2.90
2022-12-04T12:09:47.242Z,2.90
2022-12-04T12:12:46.461Z,2.90
2022-12-04T12:15:33.725Z,2.90
2022-12-04T12:18:05.751Z,2.90
2022-12-04T12:24:29.210Z,2.90
2022-12-04T12:27:22.096Z,2.90
2022-12-04T12:30:37.581Z,2.90
2022-12-04T12:46:35.577Z,3.00
2022-12-04T12:49:04.312Z,2.90
2022-12-04T12:57:31.819Z,2.90
2022-12-04T13:07:27.733Z,3.00
2022-12-04T13:13:08.922Z,2.90
2022-12-04T13:15:52.261Z,2.90
2022-12-04T13:22:28.000Z,3.00
2022-12-04T13:25:59.545Z,3.00
2022-12-04T13:53:46.469Z,3.00
2022-12-04T13:56:29.318Z,3.00
2022-12-04T13:59:32.847Z,3.00
2022-12-04T14:02:21.709Z,3.00
2022-12-04T14:11:05.590Z,3.10
2022-12-04T14:13:42.483Z,3.20
2022-12-04T14:16:21.146Z,3.20
2022-12-04T14:19:01.959Z,3.30
2022-12-04T14:21:45.224Z,3.30
2022-12-04T14:27:36.565Z,3.30
2022-12-04T14:30:05.019Z,3.40
2022-12-04T14:32:35.479Z,3.40
2022-12-04T14:35:03.907Z,3.60
2022-12-04T14:37:39.643Z,3.40
2022-12-04T14:40:17.162Z,3.40
2022-12-04T14:42:54.390Z,3.50
2022-12-04T14:52:25.053Z,3.60
2022-12-04T14:58:34.556Z,3.60
2022-12-04T15:01:29.754Z,3.60
2022-12-04T15:04:14.772Z,3.60
2022-12-04T15:06:44.711Z,3.60
2022-12-04T15:12:36.138Z,3.60
2022-12-04T15:21:05.325Z,3.60
2022-12-04T15:23:34.593Z,3.60
2022-12-04T15:26:07.190Z,3.50
2022-12-04T15:29:04.680Z,3.70
2022-12-04T15:31:43.874Z,3.50
2022-12-04T15:34:18.056Z,3.50
2022-12-04T15:37:08.721Z,3.50
2022-12-04T15:39:39.668Z,3.50
2022-12-04T15:42:24.063Z,3.40
2022-12-04T15:45:02.991Z,3.50
2022-12-04T15:50:36.500Z,3.50
2022-12-04T15:53:07.262Z,3.40
2022-12-04T15:55:47.202Z,3.40
2022-12-04T15:58:34.538Z,3.50
2022-12-04T16:01:07.404Z,3.40
2022-12-04T16:03:45.812Z,3.40
2022-12-04T16:08:30.689Z,3.40
2022-12-04T16:11:03.911Z,3.40
2022-12-04T16:13:34.235Z,3.40
2022-12-04T16:16:12.405Z,3.40
2022-12-04T16:18:39.981Z,3.40
2022-12-04T16:21:15.052Z,3.40
2022-12-04T16:23:42.153Z,3.40
2022-12-04T16:26:17.619Z,3.40
2022-12-04T16:28:44.949Z,3.40
2022-12-04T16:31:13.872Z,3.40
2022-12-04T16:33:42.065Z,3.50
2022-12-04T16:36:11.295Z,3.40
2022-12-04T16:38:38.499Z,3.50
2022-12-04T16:41:06.160Z,3.40
2022-12-04T16:43:33.242Z,3.40
2022-12-04T16:46:01.760Z,3.50
2022-12-04T16:48:32.050Z,3.50
2022-12-04T16:50:59.219Z,3.50
2022-12-04T16:53:26.611Z,3.50
2022-12-04T16:55:53.838Z,3.50
2022-12-04T16:58:21.511Z,3.50
2022-12-04T17:00:54.329Z,3.60
2022-12-04T17:03:25.836Z,3.60
2022-12-04T17:05:52.870Z,3.60
2022-12-04T17:08:20.232Z,3.60
2022-12-04T17:10:47.497Z,3.60
2022-12-04T17:13:16.619Z,3.80
2022-12-04T17:15:43.980Z,3.70
2022-12-04T17:18:14.036Z,3.70
2022-12-04T17:20:45.331Z,3.70
2022-12-04T17:23:12.891Z,3.70
2022-12-04T17:25:40.078Z,3.70
2022-12-04T17:28:07.483Z,3.80
2022-12-04T17:30:36.528Z,3.80
2022-12-04T17:33:05.150Z,3.80
2022-12-04T17:35:32.388Z,3.80
2022-12-04T17:38:05.616Z,4.00
2022-12-04T17:40:33.552Z,3.80
2022-12-04T17:43:00.818Z,3.80
2022-12-04T17:45:28.617Z,3.90
2022-12-04T17:47:55.795Z,3.90
2022-12-04T17:50:22.906Z,3.90
2022-12-04T17:52:53.290Z,3.90
2022-12-04T17:55:20.419Z,3.90
2022-12-04T17:57:47.693Z,3.90
2022-12-04T18:00:15.071Z,4.00
2022-12-04T18:02:42.557Z,4.00
2022-12-04T18:05:10.090Z,4.00
2022-12-04T18:07:37.415Z,4.00
2022-12-04T18:10:05.174Z,4.40
2022-12-04T18:12:32.637Z,4.10
2022-12-04T18:14:59.878Z,4.20
2022-12-04T18:17:27.199Z,4.10
2022-12-04T18:19:57.755Z,4.10
2022-12-04T18:22:25.812Z,4.10
2022-12-04T18:24:53.102Z,4.20
2022-12-04T18:27:20.263Z,4.20
2022-12-04T18:29:47.432Z,4.20
2022-12-04T18:32:14.766Z,4.20
2022-12-04T18:34:42.420Z,4.30
2022-12-04T18:37:09.664Z,4.30
2022-12-04T18:39:36.849Z,4.30
2022-12-04T18:42:04.099Z,4.30
2022-12-04T18:44:31.253Z,4.30
2022-12-04T18:46:59.379Z,4.40
2022-12-04T18:49:26.552Z,4.30
2022-12-04T18:51:53.864Z,4.50
2022-12-04T18:54:23.226Z,4.30
2022-12-04T18:56:51.167Z,4.40
2022-12-04T18:59:24.900Z,4.40
2022-12-04T19:01:53.444Z,4.40
2022-12-04T19:04:23.119Z,4.40
2022-12-04T19:06:53.178Z,4.40
2022-12-04T19:09:40.933Z,4.50
2022-12-04T19:12:11.554Z,4.50
2022-12-04T19:14:39.723Z,4.50
2022-12-04T19:17:07.160Z,4.50
2022-12-04T19:19:34.329Z,4.50
2022-12-04T19:22:02.141Z,4.50
2022-12-04T19:24:30.348Z,4.60
2022-12-04T19:27:01.908Z,4.60
2022-12-04T19:29:29.488Z,4.60
2022-12-04T19:31:59.567Z,4.60
2022-12-04T19:34:27.700Z,4.60
2022-12-04T19:36:55.257Z,4.70
2022-12-04T19:39:22.945Z,4.60
2022-12-04T19:41:51.806Z,4.60
2022-12-04T19:44:47.757Z,4.60
2022-12-04T19:47:23.522Z,4.70
2022-12-04T19:49:57.189Z,4.60
2022-12-04T19:52:28.537Z,4.60
2022-12-04T19:54:55.979Z,4.70
2022-12-04T19:57:23.750Z,4.60
2022-12-04T19:59:52.777Z,4.70
2022-12-04T20:02:20.268Z,4.70
2022-12-04T20:04:47.676Z,4.70
2022-12-04T20:07:20.992Z,4.70
2022-12-04T20:09:56.157Z,4.70
2022-12-04T20:12:24.557Z,4.70
2022-12-04T20:14:53.978Z,4.80
2022-12-04T20:17:26.285Z,4.80
2022-12-04T20:19:58.896Z,4.80
2022-12-04T20:22:26.420Z,4.80
2022-12-04T20:24:53.633Z,4.90
2022-12-04T20:27:21.153Z,4.80
2022-12-04T20:29:48.490Z,4.80
2022-12-04T20:32:17.241Z,4.80
2022-12-04T20:34:44.885Z,4.80
2022-12-04T20:37:12.253Z,4.90
2022-12-04T20:39:39.619Z,4.80
2022-12-04T20:42:07.005Z,4.80
2022-12-04T20:44:36.926Z,4.80
2022-12-04T20:47:04.396Z,4.90
2022-12-04T20:49:31.709Z,4.80
2022-12-04T20:51:58.962Z,4.80
2022-12-04T20:54:26.114Z,4.70
2022-12-04T20:56:53.655Z,4.90
2022-12-04T20:59:22.648Z,4.80
2022-12-04T21:01:51.645Z,4.80
2022-12-04T21:04:20.418Z,4.80
2022-12-04T21:06:48.143Z,4.90
2022-12-04T21:09:21.646Z,4.90
2022-12-04T21:11:51.687Z,4.80
2022-12-04T21:14:55.618Z,4.90
2022-12-04T21:17:23.969Z,4.90
2022-12-04T21:19:51.194Z,4.80
2022-12-04T21:22:19.426Z,5.00
2022-12-04T21:24:46.836Z,4.90
2022-12-04T21:27:19.097Z,4.90
2022-12-04T21:29:48.937Z,4.90
2022-12-04T21:32:16.249Z,4.90
2022-12-04T21:34:43.516Z,5.00
2022-12-04T21:37:10.680Z,5.00
2022-12-04T21:39:39.144Z,5.00
2022-12-04T21:42:24.729Z,5.00
2022-12-04T21:44:52.073Z,5.00
2022-12-04T21:47:19.889Z,5.00
2022-12-04T21:49:47.752Z,5.00
2022-12-04T21:52:19.155Z,5.00
2022-12-04T21:54:50.319Z,5.00
2022-12-04T21:57:18.287Z,5.00
2022-12-04T21:59:47.078Z,5.00
2022-12-04T22:02:15.431Z,5.00
2022-12-04T22:04:43.051Z,5.00
2022-12-04T22:07:11.866Z,5.00
2022-12-04T22:09:45.364Z,5.00
2022-12-04T22:12:41.420Z,5.00
2022-12-04T22:15:02.493Z,5.00
2022-12-04T22:17:30.936Z,5.00
2022-12-04T22:19:58.633Z,5.10
2022-12-04T22:22:26.643Z,5.10
2022-12-04T22:24:55.991Z,5.10
2022-12-04T22:27:27.258Z,5.10
2022-12-04T22:29:55.209Z,5.00
2022-12-04T22:32:22.886Z,5.10
2022-12-04T22:34:51.718Z,5.10
2022-12-04T22:37:19.001Z,5.10
2022-12-04T22:39:46.983Z,5.10
2022-12-04T22:42:14.198Z,5.10
2022-12-04T22:44:41.687Z,5.30
2022-12-04T22:47:09.215Z,5.10
2022-12-04T22:49:36.565Z,5.10
2022-12-04T22:52:04.230Z,5.10
2022-12-04T22:54:31.683Z,5.20
2022-12-04T22:56:59.704Z,5.10
2022-12-04T22:59:27.397Z,5.20
2022-12-04T23:04:36.769Z,5.20
2022-12-04T23:07:05.539Z,5.30
2022-12-04T23:09:32.928Z,5.30
2022-12-04T23:12:00.572Z,5.30
2022-12-04T23:14:29.084Z,5.30
2022-12-04T23:16:57.004Z,5.30
2022-12-04T23:19:25.051Z,5.30
2022-12-04T23:21:56.917Z,5.30
2022-12-04T23:24:25.396Z,5.30
2022-12-04T23:26:52.636Z,5.40
2022-12-04T23:32:07.304Z,5.30
2022-12-04T23:34:37.018Z,5.30
2022-12-04T23:37:04.412Z,5.30
2022-12-04T23:39:31.661Z,5.30
2022-12-04T23:41:58.922Z,5.30
2022-12-04T23:44:28.762Z,5.30
2022-12-04T23:47:05.003Z,5.30
2022-12-04T23:49:32.753Z,5.30
2022-12-04T23:52:00.048Z,5.30
2022-12-04T23:54:29.777Z,5.30
2022-12-04T23:56:57.098Z,5.30
2022-12-04T23:59:24.362Z,5.30
